Time;durP1;ratioP1;P1;durP2;ratioP2;P2;SDS_P1;SDS_P2;PMS_P1;PMS_P2;Temp;Humidity;BMP_temperature;BMP_pressure;BME280_temperature;BME280_humidity;BME280_pressure;Samples;Min_cycle;Max_cycle;Signal;HPM_P1;HPM_P2
2021/10/24 00:01:03;;;;;;;8.20;4.85;;;231.30;1664.00;;;;;;5095738;28;20064;-62
2021/10/24 00:03:29;;;;;;;7.43;4.43;;;231.20;1664.00;;;;;;5095833;28;20458;-62
2021/10/24 00:05:55;;;;;;;16.48;4.07;;;231.20;1664.00;;;;;;5095675;28;20028;-62
2021/10/24 00:08:21;;;;;;;7.57;4.22;;;231.20;1664.00;;;;;;5095527;28;20031;-62
2021/10/24 00:10:47;;;;;;;13.77;5.78;;;231.10;1664.00;;;;;;5095734;28;20028;-64
2021/10/24 00:13:13;;;;;;;13.15;5.85;;;231.10;1689.60;;;;;;5095748;28;20024;-63
2021/10/24 00:15:39;;;;;;;8.55;4.82;;;231.10;1664.00;;;;;;5095341;28;20021;-61
2021/10/24 00:18:05;;;;;;;9.82;4.75;;;231.10;1664.00;;;;;;5095866;28;20025;-62
2021/10/24 00:20:32;;;;;;;8.55;4.63;;;231.10;1664.00;;;;;;5095548;28;20024;-61
2021/10/24 00:22:59;;;;;;;11.20;4.88;;;231.10;1689.60;;;;;;5095335;28;20055;-62
2021/10/24 00:25:25;;;;;;;8.80;4.07;;;231.00;1689.60;;;;;;5095228;28;20028;-62
2021/10/24 00:27:51;;;;;;;9.75;4.55;;;231.00;1689.60;;;;;;5095071;28;20028;-61
2021/10/24 00:30:17;;;;;;;13.18;4.65;;;231.00;1664.00;;;;;;5094858;28;20070;-62
2021/10/24 00:32:42;;;;;;;8.63;4.60;;;231.00;1689.60;;;;;;5095219;28;20024;-61
2021/10/24 00:35:08;;;;;;;11.50;5.45;;;230.90;1689.60;;;;;;5095146;28;20118;-62
2021/10/24 00:37:34;;;;;;;9.13;4.95;;;231.00;1689.60;;;;;;5089507;28;20212;-61
2021/10/24 00:39:59;;;;;;;15.95;5.95;;;231.00;1689.60;;;;;;5094575;28;20420;-61
2021/10/24 00:42:25;;;;;;;14.77;6.30;;;230.90;1689.60;;;;;;5094841;28;20132;-61
2021/10/24 00:44:51;;;;;;;10.18;4.72;;;230.90;1689.60;;;;;;5095016;28;20020;-61
2021/10/24 00:47:17;;;;;;;7.70;4.05;;;230.90;1664.00;;;;;;5094884;28;20028;-61
2021/10/24 00:49:43;;;;;;;7.65;3.58;;;230.80;1689.60;;;;;;5094342;28;20036;-61
2021/10/24 00:52:10;;;;;;;9.38;3.13;;;230.80;1664.00;;;;;;5094859;28;20347;-61
2021/10/24 00:54:39;;;;;;;9.55;3.20;;;230.80;1689.60;;;;;;5094184;28;20078;-62
2021/10/24 00:57:05;;;;;;;7.82;3.53;;;230.70;1689.60;;;;;;5094497;28;20406;-60
2021/10/24 00:59:31;;;;;;;6.97;3.00;;;230.70;1689.60;;;;;;5094191;28;20035;-63
2021/10/24 01:01:57;;;;;;;8.63;2.92;;;230.70;1689.60;;;;;;5094482;28;20039;-62
2021/10/24 01:04:23;;;;;;;9.35;3.28;;;230.70;1689.60;;;;;;5094506;28;20020;-61
2021/10/24 01:06:51;;;;;;;8.15;3.00;;;230.70;1689.60;;;;;;5094948;28;20124;-62
2021/10/24 01:09:23;;;;;;;11.00;2.85;;;230.60;1689.60;;;;;;5094267;28;20040;-64
2021/10/24 01:11:51;;;;;;;5.93;3.20;;;230.60;1689.60;;;;;;5091796;28;20028;-64
2021/10/24 01:14:17;;;;;;;9.25;3.50;;;230.60;1689.60;;;;;;5094226;28;20028;-64
2021/10/24 01:16:43;;;;;;;8.52;3.13;;;230.60;1689.60;;;;;;5094577;28;20469;-63
2021/10/24 01:19:12;;;;;;;15.30;3.78;;;230.60;1689.60;;;;;;5094758;28;20028;-61
2021/10/24 01:21:38;;;;;;;6.38;3.17;;;230.50;1689.60;;;;;;5094227;28;20036;-64
2021/10/24 01:24:04;;;;;;;8.40;3.08;;;230.50;1689.60;;;;;;5093592;28;20024;-63
2021/10/24 01:26:34;;;;;;;5.95;3.17;;;230.50;1689.60;;;;;;5093405;28;20524;-64
2021/10/24 01:29:00;;;;;;;6.18;2.90;;;230.50;1689.60;;;;;;5093537;28;20335;-63
2021/10/24 01:31:26;;;;;;;10.35;2.95;;;230.50;1689.60;;;;;;5093744;28;20496;-63
2021/10/24 01:33:52;;;;;;;11.23;3.78;;;230.50;1689.60;;;;;;5093392;28;20066;-63
2021/10/24 01:36:18;;;;;;;5.45;3.35;;;230.50;1689.60;;;;;;5092741;28;20039;-64
2021/10/24 01:38:46;;;;;;;7.22;3.38;;;230.50;1689.60;;;;;;5092815;28;20104;-62
2021/10/24 01:41:12;;;;;;;9.82;3.97;;;230.50;1689.60;;;;;;5092326;28;20032;-62
2021/10/24 01:43:38;;;;;;;6.80;3.70;;;230.50;1689.60;;;;;;5091806;28;20028;-64
2021/10/24 01:46:04;;;;;;;7.80;3.10;;;230.50;1689.60;;;;;;5090645;28;20032;-63
2021/10/24 01:48:30;;;;;;;8.05;3.50;;;230.50;1689.60;;;;;;5093208;28;20035;-64
2021/10/24 01:50:57;;;;;;;7.15;3.28;;;230.50;1689.60;;;;;;5093572;28;20028;-63
2021/10/24 01:53:29;;;;;;;7.70;3.15;;;230.40;1689.60;;;;;;5093298;28;20024;-64
2021/10/24 01:55:55;;;;;;;9.38;3.75;;;230.40;1715.20;;;;;;5094086;28;20070;-64
2021/10/24 01:58:21;;;;;;;9.32;3.67;;;230.40;1715.20;;;;;;5093894;28;20028;-64
2021/10/24 02:00:49;;;;;;;9.23;3.10;;;230.40;1689.60;;;;;;5094187;28;20047;-64
2021/10/24 02:03:16;;;;;;;9.52;3.13;;;230.40;1689.60;;;;;;5094161;28;20085;-64
2021/10/24 02:05:42;;;;;;;11.52;3.60;;;230.40;1689.60;;;;;;5093898;28;20103;-64
2021/10/24 02:08:08;;;;;;;8.80;3.65;;;230.40;1689.60;;;;;;5094074;28;20020;-64
2021/10/24 02:10:35;;;;;;;8.00;2.95;;;230.40;1689.60;;;;;;5094258;28;20362;-64
2021/10/24 02:13:02;;;;;;;7.57;3.10;;;230.40;1689.60;;;;;;5093805;28;20462;-64
2021/10/24 02:15:27;;;;;;;7.78;3.15;;;230.40;1715.20;;;;;;5093768;28;20020;-64
2021/10/24 02:17:53;;;;;;;6.07;3.22;;;230.40;1689.60;;;;;;5093960;28;20024;-64
2021/10/24 02:20:19;;;;;;;8.70;3.67;;;230.40;1689.60;;;;;;5093952;28;20024;-63
2021/10/24 02:22:44;;;;;;;7.50;3.38;;;230.40;1689.60;;;;;;5093743;28;20039;-65
2021/10/24 02:25:10;;;;;;;8.18;3.17;;;230.40;1689.60;;;;;;5093726;28;20024;-66
2021/10/24 02:27:38;;;;;;;7.82;3.38;;;230.40;1689.60;;;;;;5093750;28;20032;-66
2021/10/24 02:30:05;;;;;;;8.00;3.53;;;230.40;1715.20;;;;;;5093666;28;20045;-66
2021/10/24 02:32:31;;;;;;;7.70;4.22;;;205.70;1715.20;;;;;;5093631;28;20024;-66
2021/10/24 02:34:57;;;;;;;6.88;3.75;;;230.40;1715.20;;;;;;5093704;28;20078;-66
2021/10/24 02:37:23;;;;;;;10.07;3.60;;;205.70;1715.20;;;;;;5093405;28;20039;-64
2021/10/24 02:39:48;;;;;;;12.35;4.72;;;205.70;1715.20;;;;;;5093934;28;20028;-64
2021/10/24 02:42:14;;;;;;;11.82;3.55;;;205.60;1715.20;;;;;;5092898;28;20032;-64
2021/10/24 02:44:40;;;;;;;8.27;4.60;;;205.60;1715.20;;;;;;5075352;28;20036;-67
2021/10/24 02:47:06;;;;;;;8.45;3.90;;;205.60;1715.20;;;;;;5093650;28;20035;-65
2021/10/24 02:49:33;;;;;;;11.18;5.03;;;205.60;1715.20;;;;;;5093446;28;20494;-67
2021/10/24 02:51:58;;;;;;;8.48;4.07;;;205.60;1715.20;;;;;;5093577;28;20162;-67
2021/10/24 02:54:25;;;;;;;9.60;4.13;;;205.60;1715.20;;;;;;5093499;28;20570;-67
2021/10/24 02:56:52;;;;;;;8.63;4.32;;;205.60;1715.20;;;;;;5093355;28;20028;-67
2021/10/24 02:59:19;;;;;;;10.20;5.18;;;205.60;1715.20;;;;;;5093515;28;20042;-65
2021/10/24 03:01:46;;;;;;;10.45;5.97;;;205.60;1715.20;;;;;;5094562;28;20397;-65
2021/10/24 03:04:12;;;;;;;12.43;6.22;;;205.60;1715.20;;;;;;5097436;28;20031;-65
2021/10/24 03:06:39;;;;;;;9.75;4.55;;;205.60;1715.20;;;;;;5097196;28;20032;-65
2021/10/24 03:09:06;;;;;;;8.80;4.53;;;205.50;1715.20;;;;;;5079256;28;20060;-64
2021/10/24 03:11:32;;;;;;;5.07;3.45;;;205.50;1715.20;;;;;;5097189;28;20031;-65
2021/10/24 03:13:58;;;;;;;8.27;4.03;;;205.40;1715.20;;;;;;5097624;28;20024;-65
2021/10/24 03:16:24;;;;;;;7.85;4.30;;;205.40;1715.20;;;;;;5097060;28;20377;-64
2021/10/24 03:18:50;;;;;;;8.60;5.03;;;205.40;1715.20;;;;;;5096905;28;20032;-65
2021/10/24 03:21:15;;;;;;;10.25;4.60;;;205.30;1715.20;;;;;;5096715;28;20036;-66
2021/10/24 03:23:41;;;;;;;12.10;6.30;;;205.30;1715.20;;;;;;5096873;28;20024;-66
2021/10/24 03:26:07;;;;;;;14.77;5.72;;;205.30;1715.20;;;;;;5097028;28;20103;-66
2021/10/24 03:28:34;;;;;;;16.92;6.57;;;205.30;1715.20;;;;;;5096716;28;20456;-66
2021/10/24 03:31:00;;;;;;;13.05;5.30;;;205.30;1715.20;;;;;;5096880;28;20035;-66
2021/10/24 03:33:26;;;;;;;10.38;5.63;;;205.30;1715.20;;;;;;5097036;28;20031;-67
2021/10/24 03:35:52;;;;;;;13.23;6.10;;;205.20;1715.20;;;;;;5096723;28;20020;-67
2021/10/24 03:38:19;;;;;;;13.10;5.95;;;205.20;1740.80;;;;;;5097380;28;20038;-65
2021/10/24 03:40:45;;;;;;;11.57;5.95;;;205.20;1740.80;;;;;;5096580;28;20024;-64
2021/10/24 03:43:11;;;;;;;15.40;6.50;;;205.20;1715.20;;;;;;5096925;28;20032;-66
2021/10/24 03:45:37;;;;;;;19.73;6.93;;;205.10;1740.80;;;;;;5096426;28;20382;-64
2021/10/24 03:48:03;;;;;;;20.42;8.48;;;205.10;1740.80;;;;;;5096414;28;20035;-64
2021/10/24 03:50:28;;;;;;;15.88;7.32;;;205.10;1740.80;;;;;;5096034;28;20069;-65
2021/10/24 03:52:54;;;;;;;24.63;8.35;;;205.10;1740.80;;;;;;5096339;28;20053;-65
2021/10/24 03:55:20;;;;;;;26.80;9.10;;;205.10;1740.80;;;;;;5096225;28;20112;-65
2021/10/24 03:57:45;;;;;;;25.65;9.40;;;205.00;1740.80;;;;;;5096481;28;20064;-65
2021/10/24 04:00:13;;;;;;;25.85;9.43;;;205.00;1766.40;;;;;;5096386;28;20033;-65
2021/10/24 04:03:02;;;;;;;20.75;9.10;;;205.00;1740.80;;;;;;5095859;28;20032;-65
2021/10/24 04:05:28;;;;;;;27.00;9.60;;;205.00;1740.80;;;;;;5095432;28;20024;-64
2021/10/24 04:07:55;;;;;;;20.27;8.52;;;204.90;1766.40;;;;;;5096066;28;20051;-65
2021/10/24 04:10:23;;;;;;;19.48;8.50;;;204.90;1766.40;;;;;;5096854;28;20103;-65
2021/10/24 04:12:50;;;;;;;28.67;12.50;;;204.80;1766.40;;;;;;5095420;28;20489;-64
2021/10/24 04:15:17;;;;;;;40.97;18.95;;;204.80;1766.40;;;;;;5095565;28;20063;-64
2021/10/24 04:17:42;;;;;;;50.42;23.52;;;204.80;1766.40;;;;;;5094641;28;20020;-63
2021/10/24 04:20:12;;;;;;;51.67;23.65;;;204.80;1766.40;;;;;;5095160;28;20085;-65
2021/10/24 04:22:38;;;;;;;44.20;20.23;;;180.10;1766.40;;;;;;5095127;28;20066;-65
2021/10/24 04:25:07;;;;;;;36.90;19.17;;;180.10;1766.40;;;;;;5095136;28;20047;-61
2021/10/24 04:27:33;;;;;;;30.42;15.48;;;180.10;1766.40;;;;;;5095351;28;20031;-62
2021/10/24 04:29:59;;;;;;;23.00;12.23;;;180.00;1792.00;;;;;;5095166;28;20038;-62
2021/10/24 04:32:26;;;;;;;22.05;11.88;;;180.00;1792.00;;;;;;5095631;28;20096;-61
2021/10/24 04:34:52;;;;;;;21.65;12.00;;;180.00;1792.00;;;;;;5092922;28;20107;-62
2021/10/24 04:37:19;;;;;;;28.05;12.55;;;179.90;1766.40;;;;;;5094883;28;20114;-61
2021/10/24 04:39:45;;;;;;;24.13;11.55;;;179.90;1792.00;;;;;;5095640;28;20032;-61
2021/10/24 04:42:11;;;;;;;22.85;9.60;;;179.90;1792.00;;;;;;5095601;28;20039;-62
2021/10/24 04:44:37;;;;;;;22.50;9.35;;;179.90;1792.00;;;;;;5095785;28;20096;-62
2021/10/24 04:47:04;;;;;;;15.35;7.28;;;179.90;1792.00;;;;;;5095368;28;20028;-61
2021/10/24 04:49:30;;;;;;;14.88;6.90;;;179.90;1792.00;;;;;;5095257;28;20051;-61
2021/10/24 04:51:56;;;;;;;12.10;7.10;;;179.90;1792.00;;;;;;5094979;28;20020;-61
2021/10/24 04:54:23;;;;;;;16.63;6.50;;;179.90;1792.00;;;;;;5076146;28;20366;-61
2021/10/24 04:56:50;;;;;;;15.80;8.13;;;179.80;1792.00;;;;;;5094252;28;20058;-61
2021/10/24 04:59:16;;;;;;;36.67;14.10;;;179.70;1792.00;;;;;;5094657;28;20024;-61
2021/10/24 05:01:43;;;;;;;42.78;16.75;;;179.70;1792.00;;;;;;5093987;28;20031;-62
2021/10/24 05:04:10;;;;;;;88.32;31.73;;;179.70;1792.00;;;;;;5094505;28;20011;-62
2021/10/24 05:06:36;;;;;;;85.72;30.65;;;179.70;1792.00;;;;;;5094316;28;20031;-62
2021/10/24 05:09:01;;;;;;;109.07;35.65;;;179.70;1792.00;;;;;;5094224;28;20095;-63
2021/10/24 05:11:27;;;;;;;169.52;53.88;;;179.70;1792.00;;;;;;5094173;28;20074;-62
2021/10/24 05:13:53;;;;;;;144.32;49.17;;;179.60;1792.00;;;;;;5094739;28;20050;-64
2021/10/24 05:16:19;;;;;;;99.53;42.38;;;179.60;1792.00;;;;;;5095022;28;20024;-64
2021/10/24 05:18:45;;;;;;;91.57;39.00;;;179.60;1792.00;;;;;;5094847;28;20107;-62
2021/10/24 05:21:11;;;;;;;82.53;34.97;;;179.60;1792.00;;;;;;5094353;28;20043;-62
2021/10/24 05:23:36;;;;;;;90.78;35.30;;;179.60;1792.00;;;;;;5093491;28;20024;-63
2021/10/24 05:26:04;;;;;;;96.82;38.10;;;179.50;1792.00;;;;;;5093183;28;20378;-63
2021/10/24 05:28:31;;;;;;;88.45;37.38;;;179.60;1792.00;;;;;;5093608;28;20024;-62
2021/10/24 05:30:57;;;;;;;87.30;33.10;;;179.50;1817.60;;;;;;5093594;28;20024;-61
2021/10/24 05:33:23;;;;;;;72.13;30.92;;;179.50;1817.60;;;;;;5093748;28;20116;-61
2021/10/24 05:35:49;;;;;;;58.10;28.77;;;179.50;1817.60;;;;;;5092782;28;20099;-61
2021/10/24 05:38:15;;;;;;;62.92;30.02;;;179.50;1817.60;;;;;;5093928;28;20490;-61
2021/10/24 05:40:41;;;;;;;63.08;29.73;;;179.40;1817.60;;;;;;5094218;28;20024;-61
2021/10/24 05:43:08;;;;;;;53.75;27.45;;;179.40;1817.60;;;;;;5094125;28;20098;-61
2021/10/24 05:45:35;;;;;;;54.88;28.02;;;179.50;1817.60;;;;;;5093199;28;20024;-63
2021/10/24 05:48:02;;;;;;;51.20;26.27;;;179.40;1792.00;;;;;;5094048;28;20028;-63
2021/10/24 05:50:29;;;;;;;43.05;23.63;;;179.40;1817.60;;;;;;5093453;28;20072;-62
2021/10/24 05:52:55;;;;;;;37.70;18.77;;;179.40;1817.60;;;;;;5092965;28;20036;-62
2021/10/24 05:55:21;;;;;;;28.55;16.35;;;179.40;1817.60;;;;;;5093467;28;20077;-62
2021/10/24 05:57:47;;;;;;;38.47;16.65;;;179.40;1817.60;;;;;;5093348;28;20043;-63
2021/10/24 06:00:13;;;;;;;31.00;16.23;;;179.40;1817.60;;;;;;5092920;28;20058;-64
2021/10/24 06:02:39;;;;;;;30.17;16.33;;;179.40;1817.60;;;;;;5081755;28;20116;-63
2021/10/24 06:05:05;;;;;;;33.92;15.73;;;179.50;1817.60;;;;;;5093803;28;20434;-64
2021/10/24 06:07:33;;;;;;;32.47;17.08;;;179.40;1817.60;;;;;;5092507;28;20038;-63
2021/10/24 06:10:07;;;;;;;39.70;18.13;;;179.50;1817.60;;;;;;5092978;28;20027;-63
2021/10/24 06:15:07;;;;;;;47.63;20.58;;;179.50;1817.60;;;;;;5092696;28;20110;-63
2021/10/24 06:17:33;;;;;;;45.65;20.52;;;179.50;1817.60;;;;;;5091632;28;20031;-64
2021/10/24 06:19:59;;;;;;;40.60;18.08;;;179.50;1817.60;;;;;;5092383;28;20036;-64
2021/10/24 06:22:26;;;;;;;38.90;15.65;;;179.60;1817.60;;;;;;5091538;28;20051;-63
2021/10/24 06:24:52;;;;;;;31.63;14.82;;;179.60;1817.60;;;;;;5091445;28;20081;-64
2021/10/24 06:27:18;;;;;;;30.65;15.82;;;179.70;1817.60;;;;;;5091505;28;20028;-64
2021/10/24 06:29:44;;;;;;;32.85;18.33;;;179.70;1817.60;;;;;;5092054;28;20389;-63
2021/10/24 06:32:09;;;;;;;34.65;21.20;;;179.80;1817.60;;;;;;5074014;28;20058;-63
2021/10/24 06:34:35;;;;;;;31.50;19.30;;;179.80;1817.60;;;;;;5092209;28;20032;-64
2021/10/24 06:37:01;;;;;;;45.70;21.85;;;179.90;1792.00;;;;;;5092853;28;20114;-63
2021/10/24 06:39:27;;;;;;;33.97;19.75;;;180.00;1817.60;;;;;;5095068;28;20081;-63
2021/10/24 06:41:53;;;;;;;49.97;21.20;;;180.00;1792.00;;;;;;5096440;28;20036;-63
2021/10/24 06:44:18;;;;;;;58.20;20.95;;;180.10;1792.00;;;;;;5095188;28;20493;-63
2021/10/24 06:46:44;;;;;;;51.78;18.33;;;180.10;1792.00;;;;;;5096858;28;20024;-63
2021/10/24 06:49:10;;;;;;;67.28;29.35;;;204.80;1792.00;;;;;;5096208;28;20481;-64
2021/10/24 06:51:36;;;;;;;65.68;32.45;;;204.80;1792.00;;;;;;5096201;28;20032;-63
2021/10/24 06:54:02;;;;;;;59.88;25.52;;;204.80;1792.00;;;;;;5097002;28;20030;-63
2021/10/24 06:56:27;;;;;;;41.28;17.63;;;204.90;1792.00;;;;;;5097623;28;20032;-63
2021/10/24 06:58:53;;;;;;;26.50;13.07;;;204.90;1792.00;;;;;;5096284;28;20028;-63
2021/10/24 07:01:19;;;;;;;23.73;10.95;;;205.00;1792.00;;;;;;5096399;28;20074;-63
2021/10/24 07:03:45;;;;;;;23.25;10.32;;;205.00;1792.00;;;;;;5097228;28;20488;-64
2021/10/24 07:06:11;;;;;;;29.45;12.48;;;205.10;1766.40;;;;;;5096732;28;20386;-64
2021/10/24 07:08:37;;;;;;;28.42;13.05;;;205.10;1792.00;;;;;;5096456;28;20028;-64
2021/10/24 07:11:02;;;;;;;35.38;16.38;;;205.20;1766.40;;;;;;5096948;28;20024;-65
2021/10/24 07:13:28;;;;;;;57.15;25.48;;;205.30;1766.40;;;;;;5095701;28;20385;-64
2021/10/24 07:15:54;;;;;;;50.75;22.95;;;205.30;1792.00;;;;;;5096441;28;20036;-64
2021/10/24 07:18:20;;;;;;;58.53;29.95;;;205.30;1766.40;;;;;;5096764;28;20024;-64
2021/10/24 07:20:45;;;;;;;78.82;37.35;;;205.30;1766.40;;;;;;5095945;28;20032;-64
2021/10/24 07:23:11;;;;;;;69.80;34.47;;;205.40;1766.40;;;;;;5096061;28;20055;-64
2021/10/24 07:25:37;;;;;;;50.78;25.33;;;205.40;1766.40;;;;;;5096246;28;20103;-64
2021/10/24 07:28:03;;;;;;;28.70;15.48;;;205.50;1766.40;;;;;;5096106;28;20086;-64
2021/10/24 07:30:29;;;;;;;24.65;12.70;;;205.50;1766.40;;;;;;5096250;28;20055;-64
2021/10/24 07:32:55;;;;;;;17.25;9.68;;;205.60;1740.80;;;;;;5096411;28;20478;-64
2021/10/24 07:35:21;;;;;;;18.88;8.70;;;205.60;1740.80;;;;;;5096165;28;20035;-64
2021/10/24 07:37:47;;;;;;;21.77;9.85;;;205.70;1740.80;;;;;;5096612;28;20062;-64
2021/10/24 07:40:13;;;;;;;23.08;10.70;;;205.70;1740.80;;;;;;5096135;28;20032;-65
2021/10/24 07:42:40;;;;;;;22.70;9.38;;;205.70;1766.40;;;;;;5096643;28;20040;-65
2021/10/24 07:45:07;;;;;;;19.25;8.75;;;230.40;1766.40;;;;;;5096658;28;20148;-65
2021/10/24 07:47:33;;;;;;;18.48;9.00;;;230.40;1766.40;;;;;;5077657;28;20036;-64
2021/10/24 07:50:10;;;;;;;17.50;8.70;;;230.60;1740.80;;;;;;5096027;28;20397;-66
2021/10/24 07:52:36;;;;;;;24.13;11.40;;;230.60;1740.80;;;;;;5096517;28;20503;-65
2021/10/24 07:55:03;;;;;;;51.45;15.98;;;230.70;1740.80;;;;;;5096370;28;20370;-66
2021/10/24 07:57:29;;;;;;;30.17;12.98;;;230.70;1740.80;;;;;;5096376;28;20023;-64
2021/10/24 07:59:55;;;;;;;41.75;14.23;;;230.80;1766.40;;;;;;5096481;28;20035;-65
2021/10/24 08:02:20;;;;;;;99.90;17.35;;;230.90;1766.40;;;;;;5096064;28;20169;-67
2021/10/24 08:04:47;;;;;;;100.68;15.25;;;231.00;1766.40;;;;;;5096342;28;20020;-64
2021/10/24 08:07:14;;;;;;;27.02;8.50;;;231.10;1792.00;;;;;;5096004;28;20028;-65
2021/10/24 08:09:41;;;;;;;27.02;7.15;;;231.30;1817.60;;;;;;5095994;28;20028;-66
2021/10/24 08:12:07;;;;;;;23.40;7.05;;;256.00;1715.20;;;;;;5095872;28;20107;-65
2021/10/24 08:14:33;;;;;;;14.93;7.15;;;256.10;1689.60;;;;;;5096294;28;20048;-66
2021/10/24 08:17:00;;;;;;;16.08;7.70;;;256.20;1715.20;;;;;;5096019;28;20035;-67
2021/10/24 08:19:27;;;;;;;15.55;7.50;;;256.30;1715.20;;;;;;5096226;28;20085;-67
2021/10/24 08:21:52;;;;;;;17.45;7.65;;;256.30;1689.60;;;;;;5095702;28;20036;-65
2021/10/24 08:24:19;;;;;;;16.00;8.27;;;256.50;1664.00;;;;;;5095717;28;20509;-67
2021/10/24 08:26:45;;;;;;;18.27;7.80;;;256.60;1664.00;;;;;;5095652;28;20024;-65
2021/10/24 08:29:10;;;;;;;11.80;6.80;;;256.70;1664.00;;;;;;5095896;28;20440;-65
2021/10/24 08:31:37;;;;;;;13.20;7.03;;;256.80;1664.00;;;;;;5095751;28;20474;-65
2021/10/24 08:34:04;;;;;;;16.08;6.90;;;256.90;1664.00;;;;;;5095584;28;20374;-67
2021/10/24 08:36:30;;;;;;;34.10;12.32;;;281.60;1689.60;;;;;;5095149;28;20060;-68
2021/10/24 08:38:57;;;;;;;66.00;25.35;;;281.70;1689.60;;;;;;5095311;28;20517;-68
2021/10/24 08:41:28;;;;;;;54.90;24.00;;;281.80;1664.00;;;;;;5095561;28;20040;-66
2021/10/24 08:43:56;;;;;;;31.85;16.77;;;281.90;1638.40;;;;;;5095473;28;20074;-66
2021/10/24 08:46:22;;;;;;;33.22;18.30;;;282.10;1715.20;;;;;;5095469;28;20051;-66
2021/10/24 08:48:48;;;;;;;24.33;13.98;;;282.20;1664.00;;;;;;5095097;28;20252;-66
2021/10/24 08:51:18;;;;;;;20.00;11.00;;;282.20;1664.00;;;;;;5095021;28;20424;-66
2021/10/24 08:53:48;;;;;;;12.55;7.65;;;282.30;1638.40;;;;;;5095244;28;20020;-66
2021/10/24 08:56:26;;;;;;;10.00;5.85;;;282.40;1638.40;;;;;;5095277;28;20446;-69
2021/10/24 08:58:52;;;;;;;10.45;6.13;;;282.50;1587.20;;;;;;5095005;28;20115;-69
2021/10/24 09:01:19;;;;;;;8.98;5.50;;;307.20;1612.80;;;;;;5094499;28;20024;-66
2021/10/24 09:04:20;;;;;;;11.30;4.88;;;307.30;1638.40;;;;;;5095203;28;20020;-66
2021/10/24 09:06:49;;;;;;;13.38;5.75;;;307.40;1612.80;;;;;;5013016;28;20029;-66
2021/10/24 09:09:20;;;;;;;11.40;5.90;;;307.50;1612.80;;;;;;5012655;28;20252;-68
2021/10/24 09:11:52;;;;;;;8.63;5.13;;;307.60;1612.80;;;;;;5012835;28;20164;-67
2021/10/24 09:14:47;;;;;;;24.08;10.30;;;307.60;1612.80;;;;;;5012914;28;20034;-64
2021/10/24 09:17:30;;;;;;;15.25;6.63;;;307.70;1612.80;;;;;;5013106;28;20091;-62
2021/10/24 09:19:59;;;;;;;12.25;6.80;;;307.80;1612.80;;;;;;5012876;28;20033;-61
2021/10/24 09:22:29;;;;;;;31.23;9.15;;;307.90;1612.80;;;;;;5012800;28;20046;-65
2021/10/24 09:25:06;;;;;;;26.08;7.75;;;308.00;1612.80;;;;;;5012736;28;20109;-68
2021/10/24 09:27:39;;;;;;;29.35;15.05;;;308.10;1587.20;;;;;;5012822;28;20516;-63
2021/10/24 09:30:10;;;;;;;19.48;9.13;;;332.80;1689.60;;;;;;4995789;28;20045;-65
2021/10/24 09:32:52;;;;;;;19.48;6.13;;;333.00;1689.60;;;;;;5012559;28;20056;-66
2021/10/24 09:35:21;;;;;;;48.95;6.70;;;333.10;1638.40;;;;;;5012644;28;20490;-64
2021/10/24 09:37:49;;;;;;;31.55;5.53;;;333.30;1638.40;;;;;;5012229;28;20392;-63
2021/10/24 09:40:23;;;;;;;27.08;5.70;;;333.30;1638.40;;;;;;5037179;28;20036;-62
2021/10/24 09:42:49;;;;;;;13.75;4.53;;;333.40;1612.80;;;;;;5094448;28;20040;-63
2021/10/24 09:45:16;;;;;;;33.05;6.13;;;333.50;1612.80;;;;;;5094355;28;20055;-63
2021/10/24 09:47:46;;;;;;;11.90;4.82;;;333.60;1587.20;;;;;;5093993;28;20541;-62
2021/10/24 09:50:32;;;;;;;11.98;4.25;;;333.70;1561.60;;;;;;5093954;28;20129;-64
2021/10/24 09:53:16;;;;;;;86.03;9.13;;;358.40;1587.20;;;;;;5094023;28;20020;-64
2021/10/24 09:55:47;;;;;;;69.07;7.97;;;358.40;1587.20;;;;;;5094219;28;20043;-65
2021/10/24 09:58:14;;;;;;;20.77;5.90;;;358.50;1612.80;;;;;;5094285;28;20277;-65
2021/10/24 10:00:44;;;;;;;29.17;6.90;;;358.60;1587.20;;;;;;5093989;28;20028;-64
2021/10/24 10:03:11;;;;;;;24.65;7.38;;;358.60;1561.60;;;;;;5093833;28;20039;-65
2021/10/24 10:05:38;;;;;;;21.80;8.00;;;358.60;1561.60;;;;;;5094048;28;20020;-64
2021/10/24 10:08:17;;;;;;;16.85;7.03;;;358.70;1561.60;;;;;;5094106;28;20031;-65
2021/10/24 10:10:49;;;;;;;8.85;4.90;;;358.70;1561.60;;;;;;5093546;28;20103;-65
2021/10/24 10:13:25;;;;;;;8.65;3.80;;;358.80;1536.00;;;;;;5093852;28;20034;-64
2021/10/24 10:15:52;;;;;;;12.45;4.72;;;358.80;1536.00;;;;;;5093082;28;20043;-64
2021/10/24 10:18:22;;;;;;;11.75;4.82;;;358.90;1510.40;;;;;;5093917;28;20073;-65
2021/10/24 10:20:53;;;;;;;12.55;4.60;;;358.90;1510.40;;;;;;5093552;28;20058;-65
2021/10/24 10:23:23;;;;;;;28.63;5.43;;;359.00;1510.40;;;;;;5093662;28;20027;-66
2021/10/24 10:25:50;;;;;;;16.80;4.93;;;359.00;1510.40;;;;;;5093715;28;20473;-65
2021/10/24 10:28:47;;;;;;;16.88;4.78;;;359.00;1510.40;;;;;;5094299;28;20434;-66
2021/10/24 10:31:15;;;;;;;10.55;4.78;;;359.00;1510.40;;;;;;5093614;28;20034;-66
2021/10/24 10:33:55;;;;;;;12.63;5.22;;;359.00;1510.40;;;;;;5093699;28;20541;-66
2021/10/24 10:36:21;;;;;;;8.25;4.45;;;359.10;1484.80;;;;;;5093606;28;20024;-67
2021/10/24 10:38:47;;;;;;;10.40;4.80;;;359.10;1510.40;;;;;;5093380;28;20073;-67
2021/10/24 10:41:14;;;;;;;14.07;4.82;;;359.10;1510.40;;;;;;5093799;28;20042;-67
2021/10/24 10:43:41;;;;;;;10.75;5.38;;;359.10;1536.00;;;;;;5093646;28;20024;-66
2021/10/24 10:46:08;;;;;;;10.60;5.32;;;359.20;1484.80;;;;;;5093346;28;20036;-66
2021/10/24 10:48:46;;;;;;;9.88;5.72;;;359.20;1459.20;;;;;;5093197;28;20051;-66
2021/10/24 10:51:21;;;;;;;11.63;5.75;;;359.20;1459.20;;;;;;5093100;28;20024;-66
2021/10/24 10:53:46;;;;;;;11.65;5.07;;;359.20;1484.80;;;;;;5093234;28;20081;-66
2021/10/24 10:56:12;;;;;;;13.77;4.90;;;359.20;1459.20;;;;;;5093469;28;20021;-65
2021/10/24 10:58:46;;;;;;;13.95;5.22;;;359.20;1484.80;;;;;;5093262;28;20027;-65
2021/10/24 11:01:32;;;;;;;10.30;5.03;;;359.30;1484.80;;;;;;5093296;28;20028;-64
2021/10/24 11:04:06;;;;;;;14.23;5.68;;;359.30;1459.20;;;;;;5093424;28;20318;-68
2021/10/24 11:06:37;;;;;;;12.40;5.20;;;359.30;1433.60;;;;;;5093287;28;20389;-63
2021/10/24 11:09:05;;;;;;;9.30;3.95;;;384.00;1433.60;;;;;;5093559;28;20020;-65
2021/10/24 11:11:40;;;;;;;11.80;4.57;;;384.10;1433.60;;;;;;5093495;28;20020;-68
2021/10/24 11:14:15;;;;;;;13.27;5.70;;;384.10;1408.00;;;;;;5093126;28;20031;-69
2021/10/24 11:16:51;;;;;;;10.13;5.25;;;384.10;1408.00;;;;;;5093331;28;20028;-65
2021/10/24 11:19:28;;;;;;;9.80;5.05;;;384.20;1408.00;;;;;;5093502;28;20028;-64
2021/10/24 11:21:59;;;;;;;11.68;5.95;;;384.20;1408.00;;;;;;5093049;28;20036;-67
2021/10/24 11:24:38;;;;;;;8.98;4.47;;;384.30;1408.00;;;;;;5096676;28;20023;-65
2021/10/24 11:27:11;;;;;;;10.27;4.57;;;384.30;1408.00;;;;;;5078703;28;20078;-63
2021/10/24 11:29:50;;;;;;;8.57;4.35;;;384.40;1382.40;;;;;;5096855;28;20058;-67
2021/10/24 11:32:34;;;;;;;10.98;4.63;;;384.30;1408.00;;;;;;5096772;28;20118;-62
2021/10/24 11:35:22;;;;;;;10.40;5.00;;;384.40;1382.40;;;;;;5095552;28;20051;-65
2021/10/24 11:37:51;;;;;;;12.07;6.38;;;384.40;1356.80;;;;;;5093972;28;20503;-63
2021/10/24 11:40:26;;;;;;;31.77;10.18;;;384.40;1356.80;;;;;;5092869;28;20024;-69
2021/10/24 11:43:05;;;;;;;30.27;9.82;;;384.40;1356.80;;;;;;5094956;28;20537;-67
2021/10/24 11:45:32;;;;;;;19.20;7.07;;;384.50;1356.80;;;;;;5095103;28;20020;-64
2021/10/24 11:48:06;;;;;;;14.52;5.40;;;384.50;1331.20;;;;;;5094835;28;20379;-64
2021/10/24 11:51:02;;;;;;;18.95;5.53;;;384.50;1331.20;;;;;;5094837;28;20379;-68
2021/10/24 11:53:43;;;;;;;22.95;5.38;;;384.60;1356.80;;;;;;5094185;28;20127;-66
2021/10/24 11:59:14;;;;;;;9.20;4.45;;;384.60;1382.40;;;;;;5092594;28;20183;-66
2021/10/24 12:01:40;;;;;;;17.15;5.10;;;384.70;1331.20;;;;;;5092893;28;20024;-66
2021/10/24 12:04:11;;;;;;;17.92;5.32;;;384.70;1305.60;;;;;;5094865;28;20027;-65
2021/10/24 12:06:59;;;;;;;12.65;5.30;;;384.70;1305.60;;;;;;5091760;28;20016;-66
2021/10/24 12:09:39;;;;;;;12.30;6.00;;;384.80;1280.00;;;;;;5093748;28;20024;-67
2021/10/24 12:12:12;;;;;;;7.95;4.07;;;384.80;1280.00;;;;;;5093827;28;20035;-67
2021/10/24 12:15:03;;;;;;;13.73;5.32;;;384.80;1254.40;;;;;;5092712;28;20044;-67
2021/10/24 12:17:30;;;;;;;8.73;3.97;;;384.80;1254.40;;;;;;5093880;28;20082;-65
2021/10/24 12:20:21;;;;;;;8.13;4.28;;;384.80;1254.40;;;;;;5094406;28;20023;-67